sensor_id;sensor_type;location;lat;lon;timestamp;P1;durP1;ratioP1;P2;durP2;ratioP2
22357;SDS011;11346;50.150;8.150;2022-07-30T00:00:37;8.03;;;6.70;;
22357;SDS011;11346;50.150;8.150;2022-07-30T00:03:04;10.47;;;6.10;;
22357;SDS011;11346;50.150;8.150;2022-07-30T00:05:31;11.40;;;5.90;;
22357;SDS011;11346;50.150;8.150;2022-07-30T00:07:59;7.33;;;6.30;;
22357;SDS011;11346;50.150;8.150;2022-07-30T00:10:27;8.33;;;6.70;;
22357;SDS011;11346;50.150;8.150;2022-07-30T00:12:54;8.40;;;6.50;;
22357;SDS011;11346;50.150;8.150;2022-07-30T00:15:22;7.87;;;5.83;;
22357;SDS011;11346;50.150;8.150;2022-07-30T00:17:49;8.30;;;5.60;;
22357;SDS011;11346;50.150;8.150;2022-07-30T00:20:16;7.93;;;4.33;;
22357;SDS011;11346;50.150;8.150;2022-07-30T00:22:43;8.57;;;5.20;;
22357;SDS011;11346;50.150;8.150;2022-07-30T00:25:12;8.67;;;5.17;;
22357;SDS011;11346;50.150;8.150;2022-07-30T00:27:39;9.97;;;5.43;;
22357;SDS011;11346;50.150;8.150;2022-07-30T00:30:06;6.97;;;5.07;;
22357;SDS011;11346;50.150;8.150;2022-07-30T00:32:34;9.00;;;4.60;;
22357;SDS011;11346;50.150;8.150;2022-07-30T00:35:01;9.50;;;4.83;;
22357;SDS011;11346;50.150;8.150;2022-07-30T00:37:28;7.37;;;4.90;;
22357;SDS011;11346;50.150;8.150;2022-07-30T00:39:55;8.67;;;5.30;;
22357;SDS011;11346;50.150;8.150;2022-07-30T00:42:25;7.53;;;5.40;;
22357;SDS011;11346;50.150;8.150;2022-07-30T00:45:02;10.93;;;5.80;;
22357;SDS011;11346;50.150;8.150;2022-07-30T00:47:29;6.50;;;5.77;;
22357;SDS011;11346;50.150;8.150;2022-07-30T00:49:56;8.20;;;5.83;;
22357;SDS011;11346;50.150;8.150;2022-07-30T00:52:23;6.50;;;5.70;;
22357;SDS011;11346;50.150;8.150;2022-07-30T00:54:50;7.63;;;5.83;;
22357;SDS011;11346;50.150;8.150;2022-07-30T00:57:18;11.27;;;5.80;;
22357;SDS011;11346;50.150;8.150;2022-07-30T00:59:46;10.27;;;6.70;;
22357;SDS011;11346;50.150;8.150;2022-07-30T01:02:13;9.10;;;5.07;;
22357;SDS011;11346;50.150;8.150;2022-07-30T01:04:40;6.77;;;5.60;;
22357;SDS011;11346;50.150;8.150;2022-07-30T01:07:08;14.67;;;6.20;;
22357;SDS011;11346;50.150;8.150;2022-07-30T01:09:36;9.37;;;5.43;;
22357;SDS011;11346;50.150;8.150;2022-07-30T01:12:03;6.80;;;5.20;;
22357;SDS011;11346;50.150;8.150;2022-07-30T01:14:31;12.87;;;5.90;;
22357;SDS011;11346;50.150;8.150;2022-07-30T01:17:01;6.37;;;5.40;;
22357;SDS011;11346;50.150;8.150;2022-07-30T01:19:30;7.03;;;5.13;;
22357;SDS011;11346;50.150;8.150;2022-07-30T01:22:18;5.80;;;5.20;;
22357;SDS011;11346;50.150;8.150;2022-07-30T01:24:51;7.87;;;5.47;;
22357;SDS011;11346;50.150;8.150;2022-07-30T01:27:23;9.17;;;5.80;;
22357;SDS011;11346;50.150;8.150;2022-07-30T01:29:51;10.47;;;5.27;;
22357;SDS011;11346;50.150;8.150;2022-07-30T01:32:20;6.20;;;5.20;;
22357;SDS011;11346;50.150;8.150;2022-07-30T01:34:49;11.33;;;5.17;;
22357;SDS011;11346;50.150;8.150;2022-07-30T01:37:17;8.87;;;5.27;;
22357;SDS011;11346;50.150;8.150;2022-07-30T01:39:44;7.10;;;5.43;;
22357;SDS011;11346;50.150;8.150;2022-07-30T01:42:12;7.70;;;5.00;;
22357;SDS011;11346;50.150;8.150;2022-07-30T01:44:40;12.77;;;5.60;;
22357;SDS011;11346;50.150;8.150;2022-07-30T01:47:08;9.47;;;5.53;;
22357;SDS011;11346;50.150;8.150;2022-07-30T01:49:37;6.30;;;5.20;;
22357;SDS011;11346;50.150;8.150;2022-07-30T01:52:05;8.90;;;5.70;;
22357;SDS011;11346;50.150;8.150;2022-07-30T01:54:34;10.37;;;5.17;;
22357;SDS011;11346;50.150;8.150;2022-07-30T01:57:01;6.27;;;4.90;;
22357;SDS011;11346;50.150;8.150;2022-07-30T01:59:29;10.40;;;5.57;;
22357;SDS011;11346;50.150;8.150;2022-07-30T02:01:59;8.27;;;5.50;;
22357;SDS011;11346;50.150;8.150;2022-07-30T02:04:26;12.30;;;5.47;;
22357;SDS011;11346;50.150;8.150;2022-07-30T02:06:55;8.57;;;5.60;;
22357;SDS011;11346;50.150;8.150;2022-07-30T02:09:24;7.63;;;5.30;;
22357;SDS011;11346;50.150;8.150;2022-07-30T02:11:54;8.57;;;5.70;;
22357;SDS011;11346;50.150;8.150;2022-07-30T02:14:40;14.37;;;5.00;;
22357;SDS011;11346;50.150;8.150;2022-07-30T02:17:19;8.83;;;5.00;;
22357;SDS011;11346;50.150;8.150;2022-07-30T02:19:48;7.37;;;5.00;;
22357;SDS011;11346;50.150;8.150;2022-07-30T02:22:16;8.87;;;5.10;;
22357;SDS011;11346;50.150;8.150;2022-07-30T02:24:45;8.00;;;4.80;;
22357;SDS011;11346;50.150;8.150;2022-07-30T02:27:14;7.40;;;5.10;;
22357;SDS011;11346;50.150;8.150;2022-07-30T02:29:42;7.00;;;4.90;;
22357;SDS011;11346;50.150;8.150;2022-07-30T02:32:11;8.00;;;5.33;;
22357;SDS011;11346;50.150;8.150;2022-07-30T02:34:41;7.47;;;5.23;;
22357;SDS011;11346;50.150;8.150;2022-07-30T02:37:09;7.50;;;5.03;;
22357;SDS011;11346;50.150;8.150;2022-07-30T02:39:38;7.40;;;5.40;;
22357;SDS011;11346;50.150;8.150;2022-07-30T02:42:07;7.43;;;5.50;;
22357;SDS011;11346;50.150;8.150;2022-07-30T02:44:35;9.73;;;5.20;;
22357;SDS011;11346;50.150;8.150;2022-07-30T02:47:03;7.63;;;5.10;;
22357;SDS011;11346;50.150;8.150;2022-07-30T02:49:31;11.10;;;5.60;;
22357;SDS011;11346;50.150;8.150;2022-07-30T02:52:01;7.90;;;5.40;;
22357;SDS011;11346;50.150;8.150;2022-07-30T02:54:28;8.83;;;5.00;;
22357;SDS011;11346;50.150;8.150;2022-07-30T02:56:56;6.43;;;5.43;;
22357;SDS011;11346;50.150;8.150;2022-07-30T02:59:25;8.83;;;5.10;;
22357;SDS011;11346;50.150;8.150;2022-07-30T03:01:54;6.17;;;5.20;;
22357;SDS011;11346;50.150;8.150;2022-07-30T03:04:22;6.80;;;5.40;;
22357;SDS011;11346;50.150;8.150;2022-07-30T03:06:49;6.33;;;5.30;;
22357;SDS011;11346;50.150;8.150;2022-07-30T03:09:19;9.03;;;5.13;;
22357;SDS011;11346;50.150;8.150;2022-07-30T03:11:46;6.87;;;5.57;;
22357;SDS011;11346;50.150;8.150;2022-07-30T03:14:15;9.07;;;5.57;;
22357;SDS011;11346;50.150;8.150;2022-07-30T03:16:42;7.33;;;5.33;;
22357;SDS011;11346;50.150;8.150;2022-07-30T03:19:12;7.00;;;5.57;;
22357;SDS011;11346;50.150;8.150;2022-07-30T03:21:41;6.93;;;4.80;;
22357;SDS011;11346;50.150;8.150;2022-07-30T03:24:09;7.93;;;5.67;;
22357;SDS011;11346;50.150;8.150;2022-07-30T03:26:39;8.63;;;5.87;;
22357;SDS011;11346;50.150;8.150;2022-07-30T03:29:08;11.17;;;5.37;;
22357;SDS011;11346;50.150;8.150;2022-07-30T03:31:37;11.13;;;5.53;;
22357;SDS011;11346;50.150;8.150;2022-07-30T03:34:04;5.93;;;5.00;;
22357;SDS011;11346;50.150;8.150;2022-07-30T03:36:32;9.47;;;5.70;;
22357;SDS011;11346;50.150;8.150;2022-07-30T03:38:59;7.03;;;5.40;;
22357;SDS011;11346;50.150;8.150;2022-07-30T03:41:27;6.63;;;5.43;;
22357;SDS011;11346;50.150;8.150;2022-07-30T03:43:55;7.27;;;5.57;;
22357;SDS011;11346;50.150;8.150;2022-07-30T03:46:23;9.70;;;5.50;;
22357;SDS011;11346;50.150;8.150;2022-07-30T03:48:51;10.40;;;5.50;;
22357;SDS011;11346;50.150;8.150;2022-07-30T03:51:18;7.23;;;5.60;;
22357;SDS011;11346;50.150;8.150;2022-07-30T03:53:46;10.77;;;5.83;;
22357;SDS011;11346;50.150;8.150;2022-07-30T03:56:15;13.53;;;6.10;;
22357;SDS011;11346;50.150;8.150;2022-07-30T03:58:43;8.83;;;5.70;;
22357;SDS011;11346;50.150;8.150;2022-07-30T04:01:12;7.83;;;5.93;;
22357;SDS011;11346;50.150;8.150;2022-07-30T04:03:39;8.93;;;6.20;;
22357;SDS011;11346;50.150;8.150;2022-07-30T04:06:07;9.63;;;5.60;;
22357;SDS011;11346;50.150;8.150;2022-07-30T04:08:34;10.20;;;5.50;;
22357;SDS011;11346;50.150;8.150;2022-07-30T04:11:01;7.20;;;5.20;;
22357;SDS011;11346;50.150;8.150;2022-07-30T04:13:28;6.60;;;5.53;;
22357;SDS011;11346;50.150;8.150;2022-07-30T04:15:58;11.00;;;5.10;;
22357;SDS011;11346;50.150;8.150;2022-07-30T04:18:28;6.33;;;5.20;;
22357;SDS011;11346;50.150;8.150;2022-07-30T04:20:57;6.97;;;5.20;;
22357;SDS011;11346;50.150;8.150;2022-07-30T04:23:25;6.83;;;4.90;;
22357;SDS011;11346;50.150;8.150;2022-07-30T04:25:55;6.53;;;5.10;;
22357;SDS011;11346;50.150;8.150;2022-07-30T04:28:22;9.47;;;6.50;;
22357;SDS011;11346;50.150;8.150;2022-07-30T04:30:49;6.63;;;5.07;;
22357;SDS011;11346;50.150;8.150;2022-07-30T04:33:17;7.87;;;5.30;;
22357;SDS011;11346;50.150;8.150;2022-07-30T04:35:45;10.60;;;6.70;;
22357;SDS011;11346;50.150;8.150;2022-07-30T04:38:12;8.20;;;6.47;;
22357;SDS011;11346;50.150;8.150;2022-07-30T04:40:39;9.73;;;6.03;;
22357;SDS011;11346;50.150;8.150;2022-07-30T04:43:07;8.27;;;5.43;;
22357;SDS011;11346;50.150;8.150;2022-07-30T04:45:34;8.57;;;5.93;;
22357;SDS011;11346;50.150;8.150;2022-07-30T04:48:01;9.17;;;6.00;;
22357;SDS011;11346;50.150;8.150;2022-07-30T04:50:28;9.63;;;6.07;;
22357;SDS011;11346;50.150;8.150;2022-07-30T04:52:57;7.70;;;5.87;;
22357;SDS011;11346;50.150;8.150;2022-07-30T04:55:24;6.93;;;5.60;;
22357;SDS011;11346;50.150;8.150;2022-07-30T04:57:52;7.40;;;5.70;;
22357;SDS011;11346;50.150;8.150;2022-07-30T05:00:19;8.47;;;5.33;;
22357;SDS011;11346;50.150;8.150;2022-07-30T05:02:47;7.10;;;5.40;;
22357;SDS011;11346;50.150;8.150;2022-07-30T05:05:15;10.10;;;6.20;;
22357;SDS011;11346;50.150;8.150;2022-07-30T05:07:42;8.60;;;6.33;;
22357;SDS011;11346;50.150;8.150;2022-07-30T05:10:11;10.47;;;6.53;;
22357;SDS011;11346;50.150;8.150;2022-07-30T05:12:38;8.30;;;6.33;;
22357;SDS011;11346;50.150;8.150;2022-07-30T05:15:09;7.13;;;5.40;;
22357;SDS011;11346;50.150;8.150;2022-07-30T05:17:36;9.27;;;5.37;;
22357;SDS011;11346;50.150;8.150;2022-07-30T05:20:04;10.23;;;5.73;;
22357;SDS011;11346;50.150;8.150;2022-07-30T05:22:31;9.40;;;5.50;;
22357;SDS011;11346;50.150;8.150;2022-07-30T05:24:58;6.00;;;5.40;;
22357;SDS011;11346;50.150;8.150;2022-07-30T05:27:27;8.27;;;5.60;;
22357;SDS011;11346;50.150;8.150;2022-07-30T05:29:54;9.20;;;5.27;;
22357;SDS011;11346;50.150;8.150;2022-07-30T05:32:21;10.20;;;6.00;;
22357;SDS011;11346;50.150;8.150;2022-07-30T05:34:48;6.47;;;5.27;;
22357;SDS011;11346;50.150;8.150;2022-07-30T05:37:15;6.60;;;5.90;;
22357;SDS011;11346;50.150;8.150;2022-07-30T05:39:43;7.83;;;6.53;;
22357;SDS011;11346;50.150;8.150;2022-07-30T05:42:10;12.07;;;6.40;;
22357;SDS011;11346;50.150;8.150;2022-07-30T05:44:38;11.43;;;5.63;;
22357;SDS011;11346;50.150;8.150;2022-07-30T05:47:05;6.53;;;5.83;;
22357;SDS011;11346;50.150;8.150;2022-07-30T05:49:33;7.23;;;5.83;;
22357;SDS011;11346;50.150;8.150;2022-07-30T05:52:00;8.03;;;6.00;;
22357;SDS011;11346;50.150;8.150;2022-07-30T05:54:27;8.67;;;5.70;;
22357;SDS011;11346;50.150;8.150;2022-07-30T05:56:54;9.57;;;6.30;;
22357;SDS011;11346;50.150;8.150;2022-07-30T05:59:21;8.47;;;6.30;;
22357;SDS011;11346;50.150;8.150;2022-07-30T06:01:50;9.60;;;5.50;;
22357;SDS011;11346;50.150;8.150;2022-07-30T06:04:17;8.70;;;6.47;;
22357;SDS011;11346;50.150;8.150;2022-07-30T06:06:44;9.57;;;6.30;;
22357;SDS011;11346;50.150;8.150;2022-07-30T06:09:12;18.20;;;8.13;;
22357;SDS011;11346;50.150;8.150;2022-07-30T06:11:39;14.47;;;7.67;;
22357;SDS011;11346;50.150;8.150;2022-07-30T06:14:06;13.53;;;7.90;;
22357;SDS011;11346;50.150;8.150;2022-07-30T06:16:33;11.97;;;8.03;;
22357;SDS011;11346;50.150;8.150;2022-07-30T06:19:02;12.40;;;8.17;;
22357;SDS011;11346;50.150;8.150;2022-07-30T06:21:29;16.03;;;8.03;;
22357;SDS011;11346;50.150;8.150;2022-07-30T06:23:56;11.97;;;8.07;;
22357;SDS011;11346;50.150;8.150;2022-07-30T06:26:23;16.73;;;8.63;;
22357;SDS011;11346;50.150;8.150;2022-07-30T06:28:50;17.40;;;8.13;;
22357;SDS011;11346;50.150;8.150;2022-07-30T06:31:18;9.53;;;7.63;;
22357;SDS011;11346;50.150;8.150;2022-07-30T06:33:45;8.63;;;7.70;;
22357;SDS011;11346;50.150;8.150;2022-07-30T06:36:13;11.17;;;7.33;;
22357;SDS011;11346;50.150;8.150;2022-07-30T06:38:40;11.50;;;8.10;;
22357;SDS011;11346;50.150;8.150;2022-07-30T06:41:08;14.53;;;8.23;;
22357;SDS011;11346;50.150;8.150;2022-07-30T06:43:35;11.60;;;8.37;;
22357;SDS011;11346;50.150;8.150;2022-07-30T06:46:02;13.40;;;8.10;;
22357;SDS011;11346;50.150;8.150;2022-07-30T06:48:30;15.97;;;8.40;;
22357;SDS011;11346;50.150;8.150;2022-07-30T06:50:57;11.03;;;7.90;;
22357;SDS011;11346;50.150;8.150;2022-07-30T06:53:25;11.50;;;8.17;;
22357;SDS011;11346;50.150;8.150;2022-07-30T06:55:52;11.70;;;7.93;;
22357;SDS011;11346;50.150;8.150;2022-07-30T06:58:19;12.90;;;7.83;;
22357;SDS011;11346;50.150;8.150;2022-07-30T07:00:46;13.40;;;8.50;;
22357;SDS011;11346;50.150;8.150;2022-07-30T07:03:14;15.20;;;8.73;;
22357;SDS011;11346;50.150;8.150;2022-07-30T07:05:41;14.47;;;8.63;;
22357;SDS011;11346;50.150;8.150;2022-07-30T07:08:08;10.83;;;7.90;;
22357;SDS011;11346;50.150;8.150;2022-07-30T07:10:36;14.67;;;7.97;;
22357;SDS011;11346;50.150;8.150;2022-07-30T07:13:04;14.10;;;8.43;;
22357;SDS011;11346;50.150;8.150;2022-07-30T07:15:31;13.10;;;7.93;;
22357;SDS011;11346;50.150;8.150;2022-07-30T07:17:58;11.63;;;8.37;;
22357;SDS011;11346;50.150;8.150;2022-07-30T07:20:25;16.37;;;8.63;;
22357;SDS011;11346;50.150;8.150;2022-07-30T07:22:52;16.07;;;8.80;;
22357;SDS011;11346;50.150;8.150;2022-07-30T07:25:19;10.77;;;8.30;;
22357;SDS011;11346;50.150;8.150;2022-07-30T07:27:48;18.13;;;8.57;;
22357;SDS011;11346;50.150;8.150;2022-07-30T07:30:15;12.27;;;8.00;;
22357;SDS011;11346;50.150;8.150;2022-07-30T07:32:42;13.53;;;8.90;;
22357;SDS011;11346;50.150;8.150;2022-07-30T07:35:09;14.00;;;8.90;;
22357;SDS011;11346;50.150;8.150;2022-07-30T07:37:37;13.37;;;8.37;;
22357;SDS011;11346;50.150;8.150;2022-07-30T07:40:05;11.10;;;8.33;;
22357;SDS011;11346;50.150;8.150;2022-07-30T07:42:32;13.87;;;8.20;;
22357;SDS011;11346;50.150;8.150;2022-07-30T07:45:01;8.83;;;7.70;;
22357;SDS011;11346;50.150;8.150;2022-07-30T07:47:28;14.87;;;7.63;;
22357;SDS011;11346;50.150;8.150;2022-07-30T07:49:55;15.23;;;8.40;;
22357;SDS011;11346;50.150;8.150;2022-07-30T07:52:22;10.43;;;8.33;;
22357;SDS011;11346;50.150;8.150;2022-07-30T07:54:49;14.93;;;8.00;;
22357;SDS011;11346;50.150;8.150;2022-07-30T07:57:16;10.17;;;7.87;;
22357;SDS011;11346;50.150;8.150;2022-07-30T07:59:44;15.03;;;7.83;;
22357;SDS011;11346;50.150;8.150;2022-07-30T08:02:12;12.00;;;7.73;;
22357;SDS011;11346;50.150;8.150;2022-07-30T08:04:39;12.03;;;7.27;;
22357;SDS011;11346;50.150;8.150;2022-07-30T08:07:06;12.57;;;7.60;;
22357;SDS011;11346;50.150;8.150;2022-07-30T08:09:34;13.90;;;8.30;;
22357;SDS011;11346;50.150;8.150;2022-07-30T08:12:01;10.63;;;7.70;;
22357;SDS011;11346;50.150;8.150;2022-07-30T08:14:28;12.10;;;7.97;;
22357;SDS011;11346;50.150;8.150;2022-07-30T08:16:55;55.97;;;10.00;;
22357;SDS011;11346;50.150;8.150;2022-07-30T08:19:23;13.73;;;8.23;;
22357;SDS011;11346;50.150;8.150;2022-07-30T08:21:52;9.63;;;7.53;;
22357;SDS011;11346;50.150;8.150;2022-07-30T08:24:24;13.63;;;7.93;;
22357;SDS011;11346;50.150;8.150;2022-07-30T08:26:52;15.03;;;6.77;;
22357;SDS011;11346;50.150;8.150;2022-07-30T08:29:19;11.67;;;7.60;;
22357;SDS011;11346;50.150;8.150;2022-07-30T08:31:46;13.37;;;7.23;;
22357;SDS011;11346;50.150;8.150;2022-07-30T08:34:13;21.33;;;7.87;;
22357;SDS011;11346;50.150;8.150;2022-07-30T08:36:42;27.23;;;8.20;;
22357;SDS011;11346;50.150;8.150;2022-07-30T08:39:09;16.70;;;7.30;;
22357;SDS011;11346;50.150;8.150;2022-07-30T08:41:36;9.27;;;6.93;;
22357;SDS011;11346;50.150;8.150;2022-07-30T08:44:03;14.40;;;7.13;;
22357;SDS011;11346;50.150;8.150;2022-07-30T08:46:35;11.97;;;6.43;;
22357;SDS011;11346;50.150;8.150;2022-07-30T08:49:02;14.20;;;6.47;;
22357;SDS011;11346;50.150;8.150;2022-07-30T08:51:29;8.57;;;5.90;;
22357;SDS011;11346;50.150;8.150;2022-07-30T08:53:58;9.10;;;5.73;;
22357;SDS011;11346;50.150;8.150;2022-07-30T08:56:26;11.77;;;5.83;;
22357;SDS011;11346;50.150;8.150;2022-07-30T08:58:53;7.50;;;5.83;;
22357;SDS011;11346;50.150;8.150;2022-07-30T09:01:21;10.50;;;6.00;;
22357;SDS011;11346;50.150;8.150;2022-07-30T09:03:48;13.70;;;6.80;;
22357;SDS011;11346;50.150;8.150;2022-07-30T09:06:15;22.43;;;5.97;;
22357;SDS011;11346;50.150;8.150;2022-07-30T09:08:43;10.00;;;7.03;;
22357;SDS011;11346;50.150;8.150;2022-07-30T09:11:12;9.93;;;6.03;;
22357;SDS011;11346;50.150;8.150;2022-07-30T09:13:39;11.43;;;6.53;;
22357;SDS011;11346;50.150;8.150;2022-07-30T09:16:17;15.77;;;6.83;;
22357;SDS011;11346;50.150;8.150;2022-07-30T09:18:44;10.33;;;6.17;;
22357;SDS011;11346;50.150;8.150;2022-07-30T09:21:15;13.67;;;6.27;;
22357;SDS011;11346;50.150;8.150;2022-07-30T09:23:55;13.53;;;6.83;;
22357;SDS011;11346;50.150;8.150;2022-07-30T09:26:24;10.83;;;6.80;;
22357;SDS011;11346;50.150;8.150;2022-07-30T09:28:51;10.17;;;6.30;;
22357;SDS011;11346;50.150;8.150;2022-07-30T09:31:19;8.70;;;6.57;;
22357;SDS011;11346;50.150;8.150;2022-07-30T09:33:46;12.23;;;6.67;;
22357;SDS011;11346;50.150;8.150;2022-07-30T09:36:14;10.27;;;6.37;;
22357;SDS011;11346;50.150;8.150;2022-07-30T09:38:45;8.37;;;5.60;;
22357;SDS011;11346;50.150;8.150;2022-07-30T09:41:13;9.80;;;6.43;;
22357;SDS011;11346;50.150;8.150;2022-07-30T09:43:43;9.07;;;5.83;;
22357;SDS011;11346;50.150;8.150;2022-07-30T09:46:10;9.23;;;6.60;;
22357;SDS011;11346;50.150;8.150;2022-07-30T09:48:38;6.63;;;5.43;;
22357;SDS011;11346;50.150;8.150;2022-07-30T09:51:05;5.63;;;4.50;;
22357;SDS011;11346;50.150;8.150;2022-07-30T09:53:32;8.17;;;5.20;;
22357;SDS011;11346;50.150;8.150;2022-07-30T09:56:00;7.63;;;5.70;;
22357;SDS011;11346;50.150;8.150;2022-07-30T09:58:37;13.43;;;5.30;;
22357;SDS011;11346;50.150;8.150;2022-07-30T10:01:06;7.43;;;5.73;;
22357;SDS011;11346;50.150;8.150;2022-07-30T10:03:34;12.50;;;5.40;;
22357;SDS011;11346;50.150;8.150;2022-07-30T10:06:07;8.73;;;4.30;;
22357;SDS011;11346;50.150;8.150;2022-07-30T10:08:38;9.97;;;5.57;;
22357;SDS011;11346;50.150;8.150;2022-07-30T10:11:05;8.37;;;5.30;;
22357;SDS011;11346;50.150;8.150;2022-07-30T10:13:32;11.00;;;5.87;;
22357;SDS011;11346;50.150;8.150;2022-07-30T10:16:01;8.30;;;5.07;;
22357;SDS011;11346;50.150;8.150;2022-07-30T10:18:29;7.60;;;5.00;;
22357;SDS011;11346;50.150;8.150;2022-07-30T10:20:57;7.70;;;4.73;;
22357;SDS011;11346;50.150;8.150;2022-07-30T10:23:25;9.43;;;5.67;;
22357;SDS011;11346;50.150;8.150;2022-07-30T10:25:55;6.80;;;4.90;;
22357;SDS011;11346;50.150;8.150;2022-07-30T10:28:23;7.13;;;4.23;;
22357;SDS011;11346;50.150;8.150;2022-07-30T10:30:51;7.90;;;4.37;;
22357;SDS011;11346;50.150;8.150;2022-07-30T10:33:18;6.63;;;4.53;;
22357;SDS011;11346;50.150;8.150;2022-07-30T10:35:48;7.13;;;4.53;;
22357;SDS011;11346;50.150;8.150;2022-07-30T10:38:16;6.20;;;3.70;;
22357;SDS011;11346;50.150;8.150;2022-07-30T10:40:45;8.53;;;4.50;;
22357;SDS011;11346;50.150;8.150;2022-07-30T10:43:16;7.00;;;3.40;;
22357;SDS011;11346;50.150;8.150;2022-07-30T10:45:50;5.67;;;3.40;;
22357;SDS011;11346;50.150;8.150;2022-07-30T10:48:19;8.07;;;4.73;;
22357;SDS011;11346;50.150;8.150;2022-07-30T10:50:52;6.93;;;4.40;;
22357;SDS011;11346;50.150;8.150;2022-07-30T10:53:32;7.93;;;4.43;;
22357;SDS011;11346;50.150;8.150;2022-07-30T10:59:01;7.57;;;4.10;;
22357;SDS011;11346;50.150;8.150;2022-07-30T11:04:17;7.60;;;4.47;;
22357;SDS011;11346;50.150;8.150;2022-07-30T11:06:45;13.90;;;4.07;;
22357;SDS011;11346;50.150;8.150;2022-07-30T11:11:55;6.53;;;3.90;;
22357;SDS011;11346;50.150;8.150;2022-07-30T11:14:22;10.50;;;4.00;;
22357;SDS011;11346;50.150;8.150;2022-07-30T11:17:09;4.37;;;3.77;;
22357;SDS011;11346;50.150;8.150;2022-07-30T11:19:38;8.97;;;3.70;;
22357;SDS011;11346;50.150;8.150;2022-07-30T11:22:28;7.77;;;2.90;;
22357;SDS011;11346;50.150;8.150;2022-07-30T11:25:00;9.10;;;3.97;;
22357;SDS011;11346;50.150;8.150;2022-07-30T11:27:34;8.10;;;3.43;;
22357;SDS011;11346;50.150;8.150;2022-07-30T11:30:02;5.83;;;3.07;;
22357;SDS011;11346;50.150;8.150;2022-07-30T11:32:32;7.10;;;3.63;;
22357;SDS011;11346;50.150;8.150;2022-07-30T11:35:16;4.50;;;3.27;;
22357;SDS011;11346;50.150;8.150;2022-07-30T11:37:59;3.63;;;3.20;;
22357;SDS011;11346;50.150;8.150;2022-07-30T11:40:27;6.13;;;3.40;;
22357;SDS011;11346;50.150;8.150;2022-07-30T11:45:40;7.17;;;2.87;;
22357;SDS011;11346;50.150;8.150;2022-07-30T11:48:08;5.27;;;2.80;;
22357;SDS011;11346;50.150;8.150;2022-07-30T11:50:36;7.77;;;3.47;;
22357;SDS011;11346;50.150;8.150;2022-07-30T11:53:05;6.10;;;3.10;;
22357;SDS011;11346;50.150;8.150;2022-07-30T11:55:33;5.13;;;3.50;;
22357;SDS011;11346;50.150;8.150;2022-07-30T11:58:02;5.67;;;3.53;;
22357;SDS011;11346;50.150;8.150;2022-07-30T12:00:33;5.60;;;2.80;;
22357;SDS011;11346;50.150;8.150;2022-07-30T12:03:06;5.93;;;2.57;;
22357;SDS011;11346;50.150;8.150;2022-07-30T12:05:33;3.93;;;2.60;;
22357;SDS011;11346;50.150;8.150;2022-07-30T12:08:01;4.07;;;2.90;;
22357;SDS011;11346;50.150;8.150;2022-07-30T12:10:30;6.20;;;2.90;;
22357;SDS011;11346;50.150;8.150;2022-07-30T12:13:06;4.97;;;2.57;;
22357;SDS011;11346;50.150;8.150;2022-07-30T12:15:34;4.53;;;3.00;;
22357;SDS011;11346;50.150;8.150;2022-07-30T12:18:02;5.07;;;2.90;;
22357;SDS011;11346;50.150;8.150;2022-07-30T12:20:29;5.63;;;2.67;;
22357;SDS011;11346;50.150;8.150;2022-07-30T12:22:56;8.40;;;2.57;;
22357;SDS011;11346;50.150;8.150;2022-07-30T12:25:23;2.30;;;2.10;;
22357;SDS011;11346;50.150;8.150;2022-07-30T12:27:53;3.20;;;2.07;;
22357;SDS011;11346;50.150;8.150;2022-07-30T12:30:20;6.03;;;2.60;;
22357;SDS011;11346;50.150;8.150;2022-07-30T12:32:48;8.00;;;2.30;;
22357;SDS011;11346;50.150;8.150;2022-07-30T12:35:16;2.83;;;2.00;;
22357;SDS011;11346;50.150;8.150;2022-07-30T12:40:25;5.17;;;2.20;;
22357;SDS011;11346;50.150;8.150;2022-07-30T12:42:53;2.10;;;1.90;;
22357;SDS011;11346;50.150;8.150;2022-07-30T12:45:28;3.80;;;2.17;;
22357;SDS011;11346;50.150;8.150;2022-07-30T12:47:55;4.87;;;2.20;;
22357;SDS011;11346;50.150;8.150;2022-07-30T12:50:23;6.13;;;2.40;;
22357;SDS011;11346;50.150;8.150;2022-07-30T12:52:51;3.33;;;2.20;;
22357;SDS011;11346;50.150;8.150;2022-07-30T12:55:18;3.10;;;1.80;;
22357;SDS011;11346;50.150;8.150;2022-07-30T12:57:55;2.83;;;1.80;;
22357;SDS011;11346;50.150;8.150;2022-07-30T13:00:23;2.17;;;1.97;;
22357;SDS011;11346;50.150;8.150;2022-07-30T13:02:50;4.07;;;1.80;;
22357;SDS011;11346;50.150;8.150;2022-07-30T13:05:18;4.47;;;2.13;;
22357;SDS011;11346;50.150;8.150;2022-07-30T13:07:55;3.17;;;2.10;;
22357;SDS011;11346;50.150;8.150;2022-07-30T13:10:22;2.10;;;1.97;;
22357;SDS011;11346;50.150;8.150;2022-07-30T13:12:49;2.53;;;2.10;;
22357;SDS011;11346;50.150;8.150;2022-07-30T13:15:18;4.20;;;2.40;;
22357;SDS011;11346;50.150;8.150;2022-07-30T13:17:46;4.17;;;2.90;;
22357;SDS011;11346;50.150;8.150;2022-07-30T13:20:14;2.83;;;2.63;;
22357;SDS011;11346;50.150;8.150;2022-07-30T13:22:41;3.80;;;2.90;;
22357;SDS011;11346;50.150;8.150;2022-07-30T13:25:09;4.23;;;2.50;;
22357;SDS011;11346;50.150;8.150;2022-07-30T13:27:36;4.83;;;2.30;;
22357;SDS011;11346;50.150;8.150;2022-07-30T13:30:04;5.40;;;2.00;;
22357;SDS011;11346;50.150;8.150;2022-07-30T13:32:33;7.83;;;2.30;;
22357;SDS011;11346;50.150;8.150;2022-07-30T13:35:01;2.97;;;2.73;;
22357;SDS011;11346;50.150;8.150;2022-07-30T13:37:29;2.40;;;2.10;;
22357;SDS011;11346;50.150;8.150;2022-07-30T13:39:56;2.63;;;2.30;;
22357;SDS011;11346;50.150;8.150;2022-07-30T13:42:23;2.67;;;2.13;;
22357;SDS011;11346;50.150;8.150;2022-07-30T13:44:50;6.03;;;2.20;;
22357;SDS011;11346;50.150;8.150;2022-07-30T13:47:17;4.43;;;2.23;;
22357;SDS011;11346;50.150;8.150;2022-07-30T13:49:46;3.13;;;1.87;;
22357;SDS011;11346;50.150;8.150;2022-07-30T13:52:14;3.73;;;2.00;;
22357;SDS011;11346;50.150;8.150;2022-07-30T13:54:42;3.97;;;2.20;;
22357;SDS011;11346;50.150;8.150;2022-07-30T13:57:09;5.13;;;2.10;;
22357;SDS011;11346;50.150;8.150;2022-07-30T13:59:36;6.53;;;2.10;;
22357;SDS011;11346;50.150;8.150;2022-07-30T14:02:03;3.67;;;2.23;;
22357;SDS011;11346;50.150;8.150;2022-07-30T14:04:30;5.57;;;2.20;;
22357;SDS011;11346;50.150;8.150;2022-07-30T14:06:59;4.53;;;1.87;;
22357;SDS011;11346;50.150;8.150;2022-07-30T14:09:26;6.07;;;1.80;;
22357;SDS011;11346;50.150;8.150;2022-07-30T14:11:54;12.40;;;2.03;;
22357;SDS011;11346;50.150;8.150;2022-07-30T14:14:21;3.23;;;2.30;;
22357;SDS011;11346;50.150;8.150;2022-07-30T14:16:48;2.10;;;1.90;;
22357;SDS011;11346;50.150;8.150;2022-07-30T14:19:16;2.87;;;2.53;;
22357;SDS011;11346;50.150;8.150;2022-07-30T14:21:44;2.57;;;2.30;;
22357;SDS011;11346;50.150;8.150;2022-07-30T14:24:12;5.03;;;2.53;;
22357;SDS011;11346;50.150;8.150;2022-07-30T14:26:40;2.87;;;2.40;;
22357;SDS011;11346;50.150;8.150;2022-07-30T14:29:08;4.53;;;2.20;;
22357;SDS011;11346;50.150;8.150;2022-07-30T14:31:35;3.67;;;2.13;;
22357;SDS011;11346;50.150;8.150;2022-07-30T14:34:03;3.63;;;2.60;;
22357;SDS011;11346;50.150;8.150;2022-07-30T14:36:30;4.60;;;2.30;;
22357;SDS011;11346;50.150;8.150;2022-07-30T14:38:57;3.83;;;2.17;;
22357;SDS011;11346;50.150;8.150;2022-07-30T14:41:27;2.93;;;1.90;;
22357;SDS011;11346;50.150;8.150;2022-07-30T14:43:54;1.70;;;1.60;;
22357;SDS011;11346;50.150;8.150;2022-07-30T14:46:21;5.67;;;2.00;;
22357;SDS011;11346;50.150;8.150;2022-07-30T14:48:49;2.60;;;1.43;;
22357;SDS011;11346;50.150;8.150;2022-07-30T14:51:16;2.30;;;1.53;;
22357;SDS011;11346;50.150;8.150;2022-07-30T14:53:43;6.13;;;1.80;;
22357;SDS011;11346;50.150;8.150;2022-07-30T14:56:10;2.43;;;1.90;;
22357;SDS011;11346;50.150;8.150;2022-07-30T14:58:39;2.17;;;1.80;;
22357;SDS011;11346;50.150;8.150;2022-07-30T15:01:07;7.33;;;1.70;;
22357;SDS011;11346;50.150;8.150;2022-07-30T15:03:34;1.93;;;1.73;;